EST,Max TemperatureF,Mean TemperatureF,Min TemperatureF,Max Dew PointF,MeanDew PointF,Min DewpointF,Max Humidity, Mean Humidity, Min Humidity, Max Sea Level PressureIn, Mean Sea Level PressureIn, Min Sea Level PressureIn, Max VisibilityMiles, Mean VisibilityMiles, Min VisibilityMiles, Max Wind SpeedMPH, Mean Wind SpeedMPH, Max Gust SpeedMPH,PrecipitationIn, CloudCover, Events, WindDirDegrees
2014-2-1,83,78,73,73,71,68,97,82,61,30.17,30.12,30.09,9,7,6,12,5,,0.00,3,,123
2014-2-2,83,78,73,74,71,66,96,81,61,30.17,30.12,30.08,9,7,6,13,8,,0.02,2,Rain,107
2014-2-3,84,78,73,75,72,70,100,82,66,30.14,30.09,30.06,9,7,6,10,6,,0.00,2,,99
2014-2-4,84,78,73,75,72,64,94,82,54,30.17,30.11,30.06,9,7,6,16,8,,0.04,3,,101
2014-2-5,82,78,73,76,72,66,100,81,61,30.15,30.10,30.05,9,7,6,12,7,,0.00,3,,141
2014-2-6,84,78,71,74,70,63,100,80,51,30.13,30.09,30.05,9,7,6,8,4,,0.00,1,,124
2014-2-7,84,76,69,75,70,66,100,82,66,30.15,30.10,30.04,9,6,6,7,2,,0.00,2,,123
2014-2-8,85,76,68,75,71,64,100,81,65,30.13,30.07,30.01,9,7,5,14,4,,0.59,3,Rain,135
2014-2-9,84,76,67,75,70,64,100,83,58,30.07,30.03,29.99,14,7,6,12,4,,0.00,2,,316
2014-2-10,83,75,67,73,69,66,94,79,61,30.09,30.04,29.99,9,7,6,8,3,,0.00,1,,41
2014-2-11,82,75,68,73,68,63,100,81,61,30.09,30.05,30.02,9,7,6,9,2,,0.00,1,,61
2014-2-12,82,76,69,74,70,66,94,80,65,30.08,29.99,29.88,9,7,6,14,5,,0.12,3,,122
2014-2-13,84,76,68,74,69,63,100,83,65,29.93,29.86,29.65,9,7,4,20,11,31,0.31,6,Rain-Thunderstorm,260
2014-2-14,78,72,66,66,61,55,88,70,57,30.06,30.00,29.91,9,7,6,8,4,,0.00,4,,348
2014-2-15,79,72,66,68,63,59,88,71,57,30.12,30.05,29.98,9,7,6,16,6,,0.00,2,,282
2014-2-16,79,72,65,68,63,57,94,72,59,30.18,30.12,30.08,9,7,6,9,4,,0.00,2,Rain,38
2014-2-17,77,71,65,64,60,55,83,66,53,30.22,30.18,30.14,9,7,6,12,5,,0.00,1,,68
2014-2-18,81,72,63,67,63,59,88,70,54,30.23,30.19,30.16,9,7,6,10,5,,0.00,2,,82
2014-2-19,82,74,67,70,64,55,88,71,44,30.19,30.13,30.06,9,7,6,14,5,,0.00,2,,88
2014-2-20,82,76,70,73,70,66,100,81,68,30.19,30.14,30.11,9,7,6,16,7,,0.00,3,,88
2014-2-21,82,78,73,74,71,68,94,79,64,30.15,30.10,30.06,9,7,6,14,7,,0.00,3,,119
2014-2-22,85,79,73,75,71,68,93,79,62,30.15,30.10,30.04,8,7,6,12,6,,0.00,4,,151
2014-2-23,85,78,71,74,72,70,100,81,66,30.13,30.08,30.03,9,7,6,12,5,,0.00,3,,150
2014-2-24,88,79,70,73,70,66,100,81,58,30.08,30.03,29.99,9,7,6,14,2,,0.08,3,Rain-Thunderstorm,170
2014-2-25,82,75,68,73,70,66,94,80,58,30.06,30.01,29.95,9,7,6,7,1,,0.00,5,,215
2014-2-26,84,76,68,72,69,64,95,79,58,29.98,29.90,29.82,8,7,6,13,3,,0.00,4,,199
2014-2-27,86,80,73,77,70,64,89,75,51,29.93,29.86,29.83,9,7,6,20,9,,0.00,5,,268
2014-2-28,77,72,67,72,66,64,100,84,78,30.06,29.98,29.87,8,6,2,23,6,39,0.20,6,Rain,312